Portada
METAR-TAF:

METAR-TAF

Aeropuertos :

Plasencia, Italia

latitud: 44-55N, longitud: 009-44E, altitud: 134 m

Observación

El informe se hizo hace 3 horas y 58 minutos, a las 17:55 UTC
Viento 4 kt del este-sureste
Temperatura 13°C
Humedad 100%
Presión 1017 hPa
Visibilidad: 0800 m
Nubes dispersas a una altura de 200 ft
Cielo nuboso a una altura de 600 ft
niebla

METAR: LIMS 231755Z 11004KT 0800 R30/P1500 R12/P1500 FG SCT002 BKN006 13/13 Q1017

Hora: 23:53 (21:53 UTC)


TAF: falta

Observaciones y pronósticos meteorológicos de más de 4000 aeropuertos (mensajes METAR y TAF).

Los puntos amarillos y rojos representan las estaciones disponibles.

Ponga el ratón en el punto deseado para ver el nombre de la estación.

Haga clic para ver las observaciones y los pronósticos meteorológicos.

Para cambiar el mapa : haga clic en los botones verdes con una cruz de color negro para hacer un zoom, en el botón verde con un guión para alejar o en las flechas verdes para mapas adyacentes.


METAR-TAF: